CheckWX is a tool to help pilots better visualize weather data.  It is not intended as a substitute for an official pre-flight weather briefing.

07:29:33 UTC

KHCO METAR
Hallock Municipal Airport
Hallock, Minnesota, USA
Current

14 mins ago

KHCO 210716Z AUTO 00000KT 10SM -DZ SCT048 BKN055 OVC065 08/07 A2983 RMK AO2
Observed
Oct-21 @ 07:16 UTC
Visibility
10 SM
Flight Rules
VFR
Conditions
Light Drizzle
Cloud Levels
  • Scattered at 4,800' AGL
  • Broken at 5,500' AGL
  • Overcast at 6,500' AGL
Temperature
C / 46°F
Dewpoint
C / 45°F
Humidity
93%
Altimeter
29.83" Hg
Pressure
1010.12 hPa
Previous

32 mins ago

KHCO 210658Z AUTO 00000KT 10SM -DZ SCT039 BKN050 BKN065 08/06 A2984 RMK AO2
Observed
Oct-21 @ 06:58 UTC
Visibility
10 SM
Flight Rules
VFR
Conditions
Light Drizzle
Cloud Levels
  • Scattered at 3,900' AGL
  • Broken at 5,000' AGL
  • Broken at 6,500' AGL
Temperature
C / 46°F
Dewpoint
C / 43°F
Humidity
87%
Altimeter
29.84" Hg
Pressure
1010.52 hPa
Previous

54 mins ago

KHCO 210636Z AUTO 00000KT 10SM DZ SCT039 BKN065 OVC075 08/07 A2984 RMK AO2
Observed
Oct-21 @ 06:36 UTC
Visibility
10 SM
Flight Rules
VFR
Conditions
Drizzle
Cloud Levels
  • Scattered at 3,900' AGL
  • Broken at 6,500' AGL
  • Overcast at 7,500' AGL
Temperature
C / 46°F
Dewpoint
C / 45°F
Humidity
93%
Altimeter
29.84" Hg
Pressure
1010.52 hPa